Time;durP1;ratioP1;P1;durP2;ratioP2;P2;SDS_P1;SDS_P2;PMS_P1;PMS_P2;Temp;Humidity;BMP_temperature;BMP_pressure;BME280_temperature;BME280_humidity;BME280_pressure;Samples;Min_cycle;Max_cycle;Signal;HPM_P1;HPM_P2
2022/07/20 00:00:13;;;;;;;;;;;27.50;30.10;;;25.85;28.82;101480.50;12245146;19;19914;-78
2022/07/20 00:04:16;;;;;;;;;;;27.40;30.10;;;25.80;28.77;101474.78;12244913;19;19935;-78
2022/07/20 00:11:19;;;;;;;;;;;27.40;30.30;;;25.79;29.07;101473.13;12246158;19;19934;-78
2022/07/20 00:12:39;;;;;;;;;;;27.40;30.40;;;25.78;28.90;101482.13;12241579;19;19911;-78
2022/07/20 00:16:41;;;;;;;;;;;27.30;30.30;;;25.54;28.84;101461.53;12246789;19;19926;-78
2022/07/20 00:20:42;;;;;;;;;;;27.50;30.50;;;25.65;29.00;101479.09;12240071;19;20365;-78
2022/07/20 00:24:44;;;;;;;;;;;27.20;30.30;;;25.58;28.87;101486.97;12242782;19;19925;-78
2022/07/20 00:28:46;;;;;;;;;;;27.10;30.30;;;25.35;28.81;101471.53;12242268;19;19949;-79
2022/07/20 00:32:48;;;;;;;;;;;27.10;30.50;;;25.32;29.20;101460.31;12242415;19;19919;-77
2022/07/20 00:36:49;;;;;;;;;;;27.30;30.60;;;25.39;29.22;101485.41;12242106;19;19919;-78
2022/07/20 00:40:51;;;;;;;;;;;27.00;31.00;;;25.27;29.42;101481.38;12241502;19;19919;-78
2022/07/20 00:44:52;;;;;;;;;;;26.90;30.50;;;25.23;29.30;101486.22;12244770;19;20266;-78
2022/07/20 00:48:54;;;;;;;;;;;26.80;30.50;;;25.17;29.22;101471.66;12243299;19;19939;-78
2022/07/20 00:52:56;;;;;;;;;;;26.70;30.60;;;25.13;29.63;101474.78;12240498;19;20337;-78
2022/07/20 00:56:57;;;;;;;;;;;26.90;30.80;;;25.05;29.49;101467.56;12239941;19;19915;-78
2022/07/20 01:00:59;;;;;;;;;;;26.60;30.70;;;24.92;29.42;101462.69;12239068;19;19946;-77
2022/07/20 01:05:01;;;;;;;;;;;26.60;30.70;;;24.78;29.64;101451.75;12232627;19;19922;-78
2022/07/20 01:09:03;;;;;;;;;;;26.50;30.80;;;24.66;29.69;101454.69;12242637;19;19921;-78
2022/07/20 01:13:04;;;;;;;;;;;26.40;30.70;;;24.56;29.47;101456.66;12240261;19;19925;-78
2022/07/20 01:17:06;;;;;;;;;;;26.50;30.80;;;24.39;29.92;101450.34;12242206;19;19922;-78
2022/07/20 01:21:08;;;;;;;;;;;26.10;30.70;;;24.31;29.99;101444.13;12236938;19;19926;-78
2022/07/20 01:25:09;;;;;;;;;;;26.00;30.90;;;24.23;29.84;101429.72;12241820;19;20333;-78
2022/07/20 01:29:13;;;;;;;;;;;26.00;31.00;;;24.18;30.35;101437.34;12242449;19;19923;-78
2022/07/20 01:33:14;;;;;;;;;;;25.90;31.00;;;24.20;30.38;101445.22;12237071;19;19986;-78
2022/07/20 01:37:16;;;;;;;;;;;25.80;31.10;;;24.07;30.17;101441.13;12241093;19;19926;-78
2022/07/20 01:41:18;;;;;;;;;;;25.70;31.20;;;23.87;30.18;101418.25;12236215;19;19933;-78
2022/07/20 01:45:19;;;;;;;;;;;25.70;31.00;;;23.99;30.16;101437.56;12241811;19;19986;-78
2022/07/20 01:49:22;;;;;;;;;;;25.60;31.20;;;23.89;30.45;101428.78;12239881;19;19911;-78
2022/07/20 01:53:24;;;;;;;;;;;25.50;31.20;;;23.99;30.46;101450.91;12242221;19;19910;-78
2022/07/20 01:57:25;;;;;;;;;;;25.60;31.40;;;23.93;30.77;101443.50;12242678;19;19921;-78
2022/07/20 02:01:26;;;;;;;;;;;25.50;31.30;;;23.96;30.59;101443.19;12223345;19;19915;-78
2022/07/20 02:05:28;;;;;;;;;;;25.50;31.40;;;23.92;30.35;101437.31;12241329;19;20003;-77
2022/07/20 02:09:29;;;;;;;;;;;25.50;31.50;;;23.92;30.71;101437.31;12236619;19;21744;-78
2022/07/20 02:13:34;;;;;;;;;;;25.50;31.40;;;23.89;30.90;101436.81;12248597;19;19922;-78
2022/07/20 02:17:36;;;;;;;;;;;25.60;31.60;;;23.83;30.44;101428.41;12245047;19;19917;-78
2022/07/20 02:21:37;;;;;;;;;;;25.50;31.60;;;23.84;30.95;101424.78;12249040;19;19935;-77
2022/07/20 02:25:39;;;;;;;;;;;25.50;31.70;;;23.87;30.79;101428.94;12248421;19;19915;-77
2022/07/20 02:29:40;;;;;;;;;;;25.50;31.90;;;23.89;30.97;101421.63;12251925;19;20592;-78
2022/07/20 02:33:42;;;;;;;;;;;25.40;31.80;;;23.94;31.18;101432.66;12252486;19;19966;-77
2022/07/20 02:37:44;;;;;;;;;;;25.70;32.10;;;23.97;30.75;101435.03;12249896;19;19915;-77
2022/07/20 02:41:45;;;;;;;;;;;25.50;32.00;;;23.92;31.27;101425.81;12248736;19;20280;-77
2022/07/20 02:45:47;;;;;;;;;;;25.50;31.90;;;23.83;30.93;101423.09;12250639;19;19914;-77
2022/07/20 02:49:49;;;;;;;;;;;25.60;32.00;;;23.80;31.37;101428.72;12250082;19;19942;-77
2022/07/20 02:53:50;;;;;;;;;;;25.50;32.00;;;23.71;31.02;101424.34;12247652;19;20276;-77
2022/07/20 02:57:52;;;;;;;;;;;25.50;31.90;;;23.59;31.45;101434.34;12250673;19;20278;-77
2022/07/20 03:01:54;;;;;;;;;;;25.30;31.90;;;23.40;31.49;101408.66;12244393;19;21115;-77
2022/07/20 03:05:55;;;;;;;;;;;25.30;32.00;;;23.41;31.19;101429.03;12248007;19;20329;-77
2022/07/20 03:09:57;;;;;;;;;;;25.20;32.00;;;23.31;31.44;101417.59;12247345;19;19919;-77
2022/07/20 03:13:58;;;;;;;;;;;25.10;32.00;;;23.26;31.66;101419.03;12247611;19;19927;-77
2022/07/20 03:18:00;;;;;;;;;;;25.00;32.00;;;23.14;31.40;101413.06;12249584;19;19926;-77
2022/07/20 03:22:01;;;;;;;;;;;24.90;32.10;;;23.17;31.88;101420.78;12240912;19;19976;-77
2022/07/20 03:26:03;;;;;;;;;;;24.80;32.10;;;23.17;31.82;101440.25;12249395;19;19911;-77
2022/07/20 03:30:06;;;;;;;;;;;24.90;32.30;;;23.09;31.70;101424.19;12245622;19;19919;-77
2022/07/20 03:34:07;;;;;;;;;;;24.80;32.30;;;23.07;31.89;101425.31;12246012;19;20343;-77
2022/07/20 03:38:09;;;;;;;;;;;24.70;32.30;;;23.08;31.60;101443.81;12244511;19;19926;-77
2022/07/20 03:42:10;;;;;;;;;;;24.80;32.50;;;23.00;31.64;101429.56;12239954;19;19907;-77
2022/07/20 03:46:15;;;;;;;;;;;24.70;32.50;;;23.04;31.74;101438.94;12248796;19;20387;-77
2022/07/20 03:50:16;;;;;;;;;;;24.70;32.50;;;23.09;31.84;101437.50;12244694;19;20381;-77
2022/07/20 03:54:18;;;;;;;;;;;24.70;32.50;;;23.05;32.12;101448.59;12246232;19;19921;-78
2022/07/20 03:58:19;;;;;;;;;;;24.70;32.60;;;22.92;32.23;101430.25;12243463;19;20336;-77
2022/07/20 04:02:21;;;;;;;;;;;24.70;32.60;;;22.73;31.99;101397.41;12238420;19;20341;-77
2022/07/20 04:06:22;;;;;;;;;;;24.70;32.70;;;23.02;32.44;101440.91;12243949;19;20329;-77
2022/07/20 04:10:24;;;;;;;;;;;24.70;32.70;;;23.04;32.03;101453.09;12240149;19;20348;-77
2022/07/20 04:14:26;;;;;;;;;;;24.70;32.60;;;23.05;32.09;101459.25;12238005;19;19926;-77
2022/07/20 04:18:27;;;;;;;;;;;24.70;32.70;;;23.06;32.27;101455.59;12225661;19;19923;-77
2022/07/20 04:22:28;;;;;;;;;;;24.90;32.90;;;23.03;32.58;101442.56;12238999;19;20356;-77
2022/07/20 04:26:30;;;;;;;;;;;24.70;33.00;;;22.87;32.42;101414.75;12243781;19;20379;-77
2022/07/20 04:30:33;;;;;;;;;;;24.70;33.10;;;22.99;32.49;101431.38;12241988;19;19922;-77
2022/07/20 04:34:34;;;;;;;;;;;24.70;33.20;;;22.90;32.74;101413.56;12233189;19;19943;-77
2022/07/20 04:38:35;;;;;;;;;;;24.70;33.20;;;23.12;32.51;101444.34;12236825;19;19922;-79
2022/07/20 04:42:37;;;;;;;;;;;24.80;33.20;;;23.26;32.51;101454.50;12231314;19;20389;-76
2022/07/20 04:46:38;;;;;;;;;;;24.80;33.30;;;23.28;32.57;101455.19;12236242;19;19923;-79
2022/07/20 04:50:40;;;;;;;;;;;24.80;33.40;;;23.26;32.55;101446.50;12236107;19;20359;-78
2022/07/20 04:54:42;;;;;;;;;;;24.90;33.40;;;23.07;32.87;101409.31;12236784;19;19937;-78
2022/07/20 04:58:44;;;;;;;;;;;24.90;33.40;;;23.31;32.75;101449.56;12234528;19;19922;-78
2022/07/20 05:02:46;;;;;;;;;;;24.90;33.50;;;23.40;32.80;101469.97;12236909;19;19939;-78
2022/07/20 05:06:47;;;;;;;;;;;25.00;33.50;;;23.50;33.18;101469.94;12236477;19;19919;-77
2022/07/20 05:10:49;;;;;;;;;;;25.00;33.60;;;23.51;33.18;101449.44;12235476;19;19931;-76
2022/07/20 05:14:51;;;;;;;;;;;25.10;33.70;;;23.61;32.94;101460.88;12236618;19;19927;-78
2022/07/20 05:18:52;;;;;;;;;;;25.30;33.80;;;23.61;33.31;101458.19;12236352;19;19914;-78
2022/07/20 05:22:54;;;;;;;;;;;25.50;33.90;;;23.72;33.31;101468.66;12235530;19;19914;-78
2022/07/20 05:26:55;;;;;;;;;;;25.30;33.80;;;23.82;33.10;101463.25;12235763;19;20257;-78
2022/07/20 05:30:57;;;;;;;;;;;25.40;33.80;;;24.00;33.26;101481.91;12236564;19;19918;-77
2022/07/20 05:34:58;;;;;;;;;;;25.80;34.00;;;24.06;33.04;101465.28;12236866;19;19922;-78
2022/07/20 05:39:00;;;;;;;;;;;25.70;33.90;;;24.22;33.19;101478.78;12236320;19;19914;-78
2022/07/20 05:43:02;;;;;;;;;;;25.70;33.70;;;24.22;33.52;101457.41;12233489;19;19930;-78
2022/07/20 05:47:06;;;;;;;;;;;25.80;33.50;;;24.52;33.09;101487.34;12235809;19;19947;-78
2022/07/20 05:51:08;;;;;;;;;;;25.90;33.70;;;24.62;33.47;101480.03;12231524;19;20360;-78
2022/07/20 05:55:10;;;;;;;;;;;26.10;33.80;;;24.84;33.19;101484.00;12235035;19;19915;-77
2022/07/20 05:59:11;;;;;;;;;;;26.20;33.80;;;25.07;33.55;101494.97;12231168;19;19930;-77
2022/07/20 06:03:13;;;;;;;;;;;26.40;33.80;;;25.25;33.14;101478.00;12230888;19;19923;-77
2022/07/20 06:07:14;;;;;;;;;;;26.60;33.70;;;25.48;32.97;101484.44;12232932;19;20251;-77
2022/07/20 06:11:15;;;;;;;;;;;26.80;33.80;;;25.64;33.33;101477.44;12231868;19;19918;-77
2022/07/20 06:15:17;;;;;;;;;;;27.00;33.70;;;25.81;33.45;101481.78;12230457;19;19922;-77
2022/07/20 06:19:18;;;;;;;;;;;27.20;33.70;;;26.08;33.32;101494.03;12232668;19;19979;-77
2022/07/20 06:23:20;;;;;;;;;;;27.40;33.70;;;26.28;32.98;101491.88;12232337;19;19918;-77
2022/07/20 06:27:21;;;;;;;;;;;27.70;33.70;;;26.51;33.34;101491.16;12233853;19;19918;-77
2022/07/20 06:31:24;;;;;;;;;;;27.80;33.70;;;26.65;33.07;101479.75;12232977;19;19911;-77
2022/07/20 06:35:26;;;;;;;;;;;27.90;33.60;;;26.88;33.18;101498.63;12211278;19;20009;-77
2022/07/20 06:39:27;;;;;;;;;;;28.20;33.60;;;27.03;33.26;101486.19;12219818;19;20324;-77
2022/07/20 06:43:29;;;;;;;;;;;28.40;33.60;;;27.19;33.00;101495.19;12227228;19;20242;-78
2022/07/20 06:47:30;;;;;;;;;;;28.50;33.60;;;27.36;32.93;101496.78;12224621;19;19915;-77
2022/07/20 06:51:32;;;;;;;;;;;28.70;33.40;;;27.47;33.00;101491.00;12225410;19;19940;-78
2022/07/20 06:55:33;;;;;;;;;;;28.90;33.50;;;27.59;32.89;101475.31;12230601;19;19919;-77
2022/07/20 06:59:37;;;;;;;;;;;29.10;33.50;;;27.80;32.90;101477.38;12237842;19;20359;-77
2022/07/20 07:03:38;;;;;;;;;;;29.30;33.40;;;28.07;33.00;101502.84;12243222;19;19919;-77
2022/07/20 07:07:40;;;;;;;;;;;29.50;33.20;;;28.27;32.84;101495.09;12244438;19;19914;-78
2022/07/20 07:11:41;;;;;;;;;;;29.70;33.30;;;28.49;32.62;101501.50;12242489;19;19922;-77
2022/07/20 07:15:43;;;;;;;;;;;29.80;33.20;;;28.64;32.95;101496.94;12241580;19;19946;-77
2022/07/20 07:19:45;;;;;;;;;;;30.00;33.10;;;28.94;32.46;101504.16;12241192;19;20336;-77
2022/07/20 07:23:49;;;;;;;;;;;30.20;33.10;;;28.98;32.35;101474.03;12242014;19;19911;-78
2022/07/20 07:27:51;;;;;;;;;;;30.40;33.10;;;29.28;32.33;101490.16;12242437;19;19918;-77
2022/07/20 07:31:53;;;;;;;;;;;30.60;33.00;;;29.63;32.19;101506.47;12237942;19;19923;-77
2022/07/20 07:35:55;;;;;;;;;;;30.80;32.90;;;29.64;32.29;101459.69;12242978;19;19922;-78
2022/07/20 07:39:56;;;;;;;;;;;31.10;33.00;;;30.07;32.17;101483.91;12237598;19;19939;-77
2022/07/20 07:43:58;;;;;;;;;;;31.30;33.00;;;30.41;32.40;101500.16;12240904;19;19919;-77
2022/07/20 07:47:59;;;;;;;;;;;31.60;33.00;;;30.71;32.14;101507.19;12241744;19;19914;-77
2022/07/20 07:52:01;;;;;;;;;;;31.90;33.10;;;30.95;32.18;101497.81;12236507;19;19922;-78
2022/07/20 07:56:03;;;;;;;;;;;32.10;32.90;;;31.21;31.82;101494.34;12243092;19;19923;-77
2022/07/20 08:00:05;;;;;;;;;;;32.40;32.90;;;31.50;31.98;101501.31;12237026;19;19919;-78
2022/07/20 08:04:12;;;;;;;;;;;32.70;32.80;;;31.71;31.61;101482.25;12242307;19;19982;-78
2022/07/20 08:08:17;;;;;;;;;;;32.90;32.80;;;31.96;31.70;101482.50;12236547;19;19919;-77
2022/07/20 08:12:20;;;;;;;;;;;33.20;32.80;;;32.29;31.83;101499.75;12235880;19;19922;-77
2022/07/20 08:16:22;;;;;;;;;;;33.50;32.80;;;32.36;31.70;101473.53;12239063;19;19992;-77
2022/07/20 08:20:24;;;;;;;;;;;33.60;32.60;;;32.72;31.74;101488.44;12236512;19;20262;-77
2022/07/20 08:24:25;;;;;;;;;;;33.90;32.70;;;32.93;31.38;101488.16;12240325;19;20511;-77
2022/07/20 08:28:27;;;;;;;;;;;34.10;32.50;;;33.14;31.38;101484.34;12237185;19;19926;-77
2022/07/20 08:32:28;;;;;;;;;;;34.30;32.40;;;33.35;31.20;101474.22;12237272;19;19925;-78
2022/07/20 08:36:30;;;;;;;;;;;34.50;32.50;;;33.65;31.13;101499.72;12235813;19;19918;-77
2022/07/20 08:40:32;;;;;;;;;;;34.80;32.50;;;33.88;31.02;101496.41;12238573;19;19943;-77
2022/07/20 08:44:33;;;;;;;;;;;35.00;32.40;;;34.13;30.92;101498.31;12237101;19;19949;-77
2022/07/20 08:48:35;;;;;;;;;;;35.20;32.30;;;34.40;30.78;101495.34;12238896;19;19970;-77
2022/07/20 08:52:36;;;;;;;;;;;35.60;32.60;;;34.56;30.41;101486.59;12233713;19;20253;-77
2022/07/20 08:56:38;;;;;;;;;;;35.70;32.30;;;34.81;30.54;101500.16;12237521;19;20304;-77
2022/07/20 09:00:39;;;;;;;;;;;35.90;32.10;;;35.00;30.39;101487.38;12233033;19;20270;-77
2022/07/20 09:04:56;;;;;;;;;;;36.20;32.00;;;35.28;30.49;101494.97;12238279;19;19923;-78
2022/07/20 09:09:06;;;;;;;;;;;36.40;32.00;;;35.50;30.16;101481.69;12235743;19;19952;-77
2022/07/20 09:13:13;;;;;;;;;;;36.70;32.00;;;35.69;29.89;101485.19;12236364;19;19914;-78
2022/07/20 09:17:23;;;;;;;;;;;36.80;31.70;;;35.87;29.89;101481.56;12234871;19;19948;-77
2022/07/20 09:21:29;;;;;;;;;;;37.00;31.00;;;36.01;29.86;101476.72;12232155;19;19924;-77
2022/07/20 09:25:31;;;;;;;;;;;37.20;31.40;;;36.19;29.61;101473.09;12235589;19;20332;-77
2022/07/20 09:29:33;;;;;;;;;;;37.30;31.40;;;36.29;29.30;101462.41;12234241;19;19923;-77
2022/07/20 09:33:34;;;;;;;;;;;37.50;30.80;;;36.47;28.95;101475.06;12232194;19;19919;-77
2022/07/20 09:37:39;;;;;;;;;;;37.60;30.80;;;36.55;28.95;101464.66;12235990;19;19915;-78
2022/07/20 09:41:43;;;;;;;;;;;37.70;30.50;;;36.54;28.48;101449.41;12235585;19;20297;-80
2022/07/20 09:45:44;;;;;;;;;;;37.80;30.90;;;36.77;28.71;101464.81;12232828;19;20286;-80
2022/07/20 09:49:46;;;;;;;;;;;38.00;30.50;;;36.92;28.26;101472.47;12231059;19;20357;-80
2022/07/20 09:53:49;;;;;;;;;;;38.10;30.60;;;37.03;28.55;101456.38;12233164;19;19987;-80
2022/07/20 09:57:51;;;;;;;;;;;38.20;31.10;;;37.21;28.02;101469.78;12237126;19;19947;-79
2022/07/20 10:01:53;;;;;;;;;;;38.30;30.90;;;37.31;28.29;101466.41;12231905;19;19919;-80
2022/07/20 10:05:55;;;;;;;;;;;38.50;30.40;;;37.31;28.27;101441.88;12235609;19;19915;-80
2022/07/20 10:09:58;;;;;;;;;;;38.60;30.30;;;37.53;27.63;101461.09;12232439;19;19927;-79
2022/07/20 10:14:03;;;;;;;;;;;38.80;30.00;;;37.60;28.05;101453.59;12234894;19;19918;-79
2022/07/20 10:18:09;;;;;;;;;;;38.80;29.90;;;37.64;27.60;101441.09;12233005;19;20333;-80
2022/07/20 10:22:11;;;;;;;;;;;38.90;29.80;;;37.66;27.67;101430.78;12230194;19;19925;-80
2022/07/20 10:26:25;;;;;;;;;;;39.00;29.90;;;37.77;27.52;101429.03;12233223;19;19918;-79
2022/07/20 10:30:27;;;;;;;;;;;39.10;30.00;;;37.98;27.33;101443.84;12230407;19;19923;-80
2022/07/20 10:34:43;;;;;;;;;;;39.20;30.00;;;38.09;27.51;101432.00;12240194;19;19911;-79
2022/07/20 10:38:44;;;;;;;;;;;39.20;29.80;;;38.17;27.36;101412.47;12243053;19;19915;-80
2022/07/20 10:43:10;;;;;;;;;;;39.40;29.80;;;38.27;27.26;101409.06;12243744;19;19910;-79
2022/07/20 10:47:44;;;;;;;;;;;39.50;29.70;;;38.47;26.49;101438.53;12243655;19;20258;-79
2022/07/20 10:52:06;;;;;;;;;;;39.70;30.20;;;38.51;26.53;101424.13;12243066;19;19951;-79
2022/07/20 10:56:07;;;;;;;;;;;39.70;29.70;;;38.56;26.31;101427.97;12241175;19;19922;-79
2022/07/20 11:00:11;;;;;;;;;;;39.80;29.50;;;38.60;26.20;101410.03;12240224;19;19918;-80
2022/07/20 11:04:15;;;;;;;;;;;39.80;28.70;;;38.62;26.46;101410.56;12243353;19;20260;-79
2022/07/20 11:08:17;;;;;;;;;;;39.90;29.50;;;38.56;26.18;101374.19;12242433;19;19948;-79
2022/07/20 11:12:29;;;;;;;;;;;39.90;29.30;;;38.79;26.19;101402.31;12238684;19;20420;-79
2022/07/20 11:16:32;;;;;;;;;;;40.10;29.60;;;38.89;26.01;101397.81;12244277;19;19918;-79
2022/07/20 11:20:34;;;;;;;;;;;40.10;29.30;;;39.00;26.00;101404.19;12239069;19;20369;-79
2022/07/20 11:24:36;;;;;;;;;;;40.20;29.30;;;39.04;25.77;101402.59;12244292;19;19922;-79
2022/07/20 11:28:46;;;;;;;;;;;40.20;29.60;;;39.12;25.40;101390.38;12238219;19;19922;-80
2022/07/20 11:32:53;;;;;;;;;;;40.50;29.80;;;39.20;25.31;101387.16;12238342;19;19949;-83
2022/07/20 11:36:59;;;;;;;;;;;40.40;29.20;;;39.32;25.31;101384.25;12241447;19;19918;-79
2022/07/20 11:41:02;;;;;;;;;;;40.50;29.60;;;39.25;25.25;101367.25;12239128;19;19917;-79
2022/07/20 11:45:05;;;;;;;;;;;40.50;29.10;;;39.31;24.95;101375.22;12241269;19;19919;-80
2022/07/20 11:49:08;;;;;;;;;;;40.50;29.00;;;39.42;25.24;101370.69;12243999;19;19931;-79
2022/07/20 11:53:34;;;;;;;;;;;40.60;29.00;;;39.48;25.07;101377.84;12237290;19;20341;-80
2022/07/20 11:57:36;;;;;;;;;;;40.70;29.00;;;39.46;24.58;101360.88;12240499;19;19950;-80
2022/07/20 12:01:38;;;;;;;;;;;40.70;29.20;;;39.58;24.39;101366.97;12233822;19;19932;-80
2022/07/20 12:05:40;;;;;;;;;;;40.70;29.40;;;39.26;24.28;101312.31;12238054;19;20294;-79
2022/07/20 12:09:41;;;;;;;;;;;40.70;28.80;;;39.58;24.42;101358.75;12224326;19;19926;-79
2022/07/20 12:13:45;;;;;;;;;;;40.70;28.50;;;39.62;24.36;101348.13;12239212;19;19944;-80
2022/07/20 12:17:51;;;;;;;;;;;40.80;28.40;;;39.64;24.33;101337.75;12237719;19;19922;-79
2022/07/20 12:21:53;;;;;;;;;;;40.80;28.70;;;39.73;24.47;101344.38;12236112;19;19923;-80
2022/07/20 12:25:54;;;;;;;;;;;40.80;28.70;;;39.83;24.30;101335.41;12235769;19;19978;-80
2022/07/20 12:29:56;;;;;;;;;;;40.90;26.80;;;39.91;24.43;101356.78;12238177;19;20332;-79
2022/07/20 12:34:12;;;;;;;;;;;41.00;28.00;;;39.92;24.29;101335.75;12236451;19;19989;-79
2022/07/20 12:38:15;;;;;;;;;;;41.00;28.20;;;39.85;23.77;101316.81;12235525;19;19918;-79
2022/07/20 12:42:19;;;;;;;;;;;41.30;28.40;;;39.96;23.98;101325.91;12235104;19;19919;-79
2022/07/20 12:46:21;;;;;;;;;;;41.10;28.40;;;40.07;23.94;101335.78;12238144;19;19978;-79
2022/07/20 12:50:23;;;;;;;;;;;41.10;28.20;;;40.11;23.83;101317.75;12235448;19;20349;-79
2022/07/20 12:54:25;;;;;;;;;;;41.10;28.20;;;40.11;23.55;101308.72;12236570;19;19911;-80
2022/07/20 12:58:27;;;;;;;;;;;41.20;28.20;;;40.24;23.40;101325.50;12233820;19;20344;-80
2022/07/20 13:02:28;;;;;;;;;;;41.30;28.00;;;40.21;23.42;101323.31;12234636;19;19936;-80
2022/07/20 13:06:34;;;;;;;;;;;41.30;27.80;;;40.18;23.57;101309.28;12236164;19;20396;-80
2022/07/20 13:10:36;;;;;;;;;;;41.40;27.30;;;40.12;23.51;101311.19;12234053;19;19918;-79
2022/07/20 13:14:38;;;;;;;;;;;41.30;28.10;;;40.12;23.28;101308.44;12236794;19;20220;-79
2022/07/20 13:18:39;;;;;;;;;;;41.20;28.20;;;40.16;23.17;101311.50;12232322;19;19970;-79
2022/07/20 13:22:40;;;;;;;;;;;41.30;28.10;;;40.13;23.17;101290.97;12229315;19;19990;-80
2022/07/20 13:26:43;;;;;;;;;;;41.30;27.90;;;40.20;23.17;101287.94;12144959;19;19929;-86
2022/07/20 13:30:45;;;;;;;;;;;41.30;27.90;;;40.27;23.53;101288.56;12237635;19;19922;-88
2022/07/20 13:34:46;;;;;;;;;;;41.40;28.10;;;40.00;23.01;101239.47;12242846;19;19921;-88
2022/07/20 13:38:48;;;;;;;;;;;41.40;28.30;;;40.04;22.96;101233.16;12238776;19;19945;-86
2022/07/20 13:42:50;;;;;;;;;;;41.40;27.90;;;40.15;22.80;101257.81;12237212;19;20357;-87
2022/07/20 13:46:51;;;;;;;;;;;41.40;28.10;;;40.26;22.94;101273.22;12235071;19;19937;-87
2022/07/20 13:50:53;;;;;;;;;;;41.40;27.90;;;40.27;22.89;101258.44;12233718;19;20378;-88
2022/07/20 13:54:55;;;;;;;;;;;41.40;28.20;;;40.18;21.95;101243.59;12234181;19;19923;-88
2022/07/20 13:58:57;;;;;;;;;;;41.40;28.20;;;40.30;22.65;101240.66;12235682;19;19927;-87
2022/07/20 14:02:58;;;;;;;;;;;41.40;27.50;;;40.43;22.42;101265.59;12230833;19;20261;-87
2022/07/20 14:07:00;;;;;;;;;;;41.50;27.70;;;40.50;22.66;101250.78;12234684;19;19978;-88
2022/07/20 14:13:28;;;;;;;;;;;41.50;27.00;;;39.92;22.04;101158.75;12295983;19;19999;-87
2022/07/20 14:17:30;;;;;;;;;;;41.60;27.60;;;40.43;22.36;101240.13;12295248;19;19923;-88
2022/07/20 14:21:31;;;;;;;;;;;41.60;27.30;;;40.51;22.10;101245.06;12295551;19;20483;-87
2022/07/20 14:25:35;;;;;;;;;;;41.60;27.10;;;40.39;21.86;101223.41;12200216;19;19914;-87
2022/07/20 14:29:37;;;;;;;;;;;41.60;27.50;;;40.17;21.71;101190.78;12290832;19;19944;-87
2022/07/20 14:33:39;;;;;;;;;;;41.60;27.80;;;40.25;22.04;101214.09;12289744;19;19946;-88
2022/07/20 14:37:41;;;;;;;;;;;41.60;27.30;;;40.10;22.16;101192.13;12294442;19;19911;-87
2022/07/20 14:41:42;;;;;;;;;;;41.50;27.00;;;40.28;21.76;101221.75;12295824;19;19922;-87
2022/07/20 14:45:45;;;;;;;;;;;41.50;27.80;;;40.13;21.86;101186.97;12293291;19;20283;-87
2022/07/20 14:49:48;;;;;;;;;;;41.60;27.40;;;40.23;21.39;101197.94;12292891;19;20297;-87
2022/07/20 14:53:49;;;;;;;;;;;41.50;27.30;;;40.32;21.71;101205.59;12296263;19;19923;-87
2022/07/20 14:57:52;;;;;;;;;;;41.50;27.50;;;40.26;21.67;101202.84;12292807;19;20248;-87
2022/07/20 15:01:54;;;;;;;;;;;41.50;27.10;;;40.15;21.71;101187.50;12297326;19;19927;-87
2022/07/20 15:05:57;;;;;;;;;;;41.50;27.30;;;40.04;21.19;101170.22;12295396;19;19935;-87
2022/07/20 15:09:59;;;;;;;;;;;41.40;27.50;;;40.34;21.64;101212.44;12296588;19;19919;-87
2022/07/20 15:14:00;;;;;;;;;;;41.40;27.10;;;40.11;21.60;101182.84;12298785;19;19938;-87
2022/07/20 15:18:02;;;;;;;;;;;41.40;27.30;;;39.91;21.91;101159.81;12292171;19;19919;-85
2022/07/20 15:22:18;;;;;;;;;;;41.40;27.10;;;39.92;21.29;101177.88;12273329;19;19926;-85
2022/07/20 15:26:20;;;;;;;;;;;41.30;27.10;;;39.97;21.63;101197.06;12250253;19;19923;-86
2022/07/20 15:30:22;;;;;;;;;;;41.20;27.00;;;39.56;21.66;101134.03;12252788;19;19947;-86
2022/07/20 15:34:23;;;;;;;;;;;41.10;26.90;;;39.89;20.95;101192.13;12255656;19;20340;-87
2022/07/20 15:38:25;;;;;;;;;;;41.10;27.00;;;39.93;21.38;101179.53;12249107;19;19910;-87
2022/07/20 15:42:26;;;;;;;;;;;41.10;27.00;;;39.98;21.55;101193.22;12254828;19;19915;-87
2022/07/20 15:46:28;;;;;;;;;;;41.10;27.10;;;39.90;21.64;101168.31;12250363;19;19929;-87
2022/07/20 15:50:29;;;;;;;;;;;41.10;27.10;;;40.07;21.54;101176.25;12245538;19;19923;-88
2022/07/20 15:54:31;;;;;;;;;;;41.10;27.00;;;40.04;21.23;101167.50;12245012;19;20417;-86
2022/07/20 15:58:32;;;;;;;;;;;41.10;27.00;;;40.03;21.48;101165.88;12241267;19;19919;-86
2022/07/20 16:02:34;;;;;;;;;;;41.10;26.90;;;40.05;21.23;101162.88;12242301;19;19922;-87
2022/07/20 16:06:35;;;;;;;;;;;41.10;27.10;;;40.03;21.32;101165.06;12244549;19;19919;-86
2022/07/20 16:10:36;;;;;;;;;;;41.10;26.90;;;39.91;21.16;101150.78;12247575;19;19986;-88
2022/07/20 16:14:38;;;;;;;;;;;41.10;27.00;;;39.91;21.13;101151.59;12245272;19;19923;-87
2022/07/20 16:18:39;;;;;;;;;;;41.10;26.90;;;39.87;21.17;101138.75;12247892;19;19933;-87
2022/07/20 16:22:41;;;;;;;;;;;41.00;27.10;;;39.89;21.30;101153.81;12245100;19;19923;-87
2022/07/20 16:26:42;;;;;;;;;;;41.00;26.90;;;39.90;21.55;101147.25;12241379;19;19926;-86
2022/07/20 16:30:44;;;;;;;;;;;41.00;27.10;;;39.94;21.34;101152.97;12248362;19;19929;-87
2022/07/20 16:34:45;;;;;;;;;;;41.00;26.90;;;39.93;21.07;101154.91;12244029;19;19922;-87
2022/07/20 16:38:46;;;;;;;;;;;41.00;27.00;;;39.88;21.08;101146.69;12245403;19;19941;-87
2022/07/20 16:42:47;;;;;;;;;;;41.00;27.00;;;39.85;21.09;101147.22;12246350;19;19914;-89
2022/07/20 16:46:50;;;;;;;;;;;40.90;26.70;;;39.61;21.24;101114.88;12243484;19;20323;-86
2022/07/20 16:50:52;;;;;;;;;;;40.90;26.90;;;39.79;21.05;101134.66;12244592;19;19949;-87
2022/07/20 16:54:53;;;;;;;;;;;40.90;27.00;;;39.76;21.06;101136.00;12246307;19;19937;-87
2022/07/20 16:58:54;;;;;;;;;;;40.90;27.00;;;39.69;21.24;101132.66;12246060;19;19915;-86
2022/07/20 17:02:56;;;;;;;;;;;40.80;26.80;;;39.60;20.92;101135.09;12248261;19;20259;-88
2022/07/20 17:06:57;;;;;;;;;;;40.80;26.90;;;39.47;21.42;101121.94;12247699;19;19930;-87
2022/07/20 17:10:59;;;;;;;;;;;40.70;26.90;;;39.05;21.14;101062.75;12252195;19;19907;-87
2022/07/20 17:15:00;;;;;;;;;;;40.60;27.00;;;39.31;21.13;101101.91;12249843;19;20000;-86
2022/07/20 17:23:22;;;;;;;;;;;40.50;27.00;;;39.30;21.28;101121.31;12251500;19;19915;-87
2022/07/20 17:27:23;;;;;;;;;;;40.40;26.90;;;39.12;21.28;101101.56;12241293;19;20313;-87
2022/07/20 17:31:24;;;;;;;;;;;40.40;27.10;;;39.06;21.30;101105.34;12249383;19;20286;-86
2022/07/20 17:35:26;;;;;;;;;;;40.30;27.00;;;39.06;21.33;101116.28;12246159;19;19926;-87
2022/07/20 17:39:27;;;;;;;;;;;40.20;27.10;;;38.77;21.19;101071.31;12250341;19;20355;-88
2022/07/20 17:43:29;;;;;;;;;;;40.20;27.00;;;38.89;21.71;101110.19;12251970;19;20236;-89
2022/07/20 17:47:30;;;;;;;;;;;40.10;27.10;;;38.79;21.17;101110.09;12246238;19;19911;-87
2022/07/20 17:51:32;;;;;;;;;;;40.00;27.10;;;38.69;21.19;101108.13;12248124;19;19911;-86
2022/07/20 17:55:33;;;;;;;;;;;39.90;27.00;;;38.59;21.36;101102.59;12245197;19;19925;-86
2022/07/20 17:59:35;;;;;;;;;;;39.80;27.10;;;38.43;21.31;101093.47;12247854;19;19918;-88
2022/07/20 18:03:38;;;;;;;;;;;39.70;27.20;;;38.32;21.84;101099.91;12248150;19;19919;-87
2022/07/20 18:07:40;;;;;;;;;;;39.60;27.30;;;38.26;21.47;101105.31;12245624;19;19919;-88
2022/07/20 18:11:42;;;;;;;;;;;39.40;27.30;;;38.08;21.67;101092.09;12245000;19;19918;-89
2022/07/20 18:15:44;;;;;;;;;;;39.30;27.30;;;38.00;21.83;101090.66;12246870;19;19935;-87